Tuesday, May 3, 2016, 4:40 AM EDT

KGED, Georgetown Sussex Co Airport

Location: Georgetown, DE, United States Lat: 38.683
Local Time: 4:40 AM EDT ( 8:40 GMT) Lon: -75.367
Time Zone: US/Eastern Elev: 52 ft

Show me the last for .
Show Decoded

2016-05-03 03:54 METAR KGED 030754Z AUTO 00000KT 5SM BR BKN110 16/16 A2980 RMK AO2 RAE52 SLP091
                 P0002 T01610156 =
2016-05-03 02:54 METAR KGED 030654Z AUTO 15004KT 4SM -RA BR FEW003 SCT090 OVC110 16/16 A2982 RMK
                 AO2 RAE07B47 SLP097 P0000 T01560156 =
2016-05-03 02:43 METAR KGED 030643Z AUTO 14004KT 5SM BR FEW003 BKN090 OVC110 16/16 A2983 RMK AO2
                 RAE07 P0000 T01560156 =
2016-05-03 02:14 METAR KGED 030614Z AUTO 15006KT 7SM BKN003 BKN110 16/15 A2983 RMK AO2 RAE07
                 P0000 T01560150 =
2016-05-03 02:03 METAR KGED 030603Z AUTO 16005KT 7SM -RA SCT005 SCT085 OVC110 16/15 A2984 RMK AO2
                 P0000 T01560150 =
2016-05-03 01:54 METAR KGED 030554Z AUTO 16006KT 6SM -RA BR FEW090 OVC110 16/15 A2984 RMK AO2
                 RAE17B33 SLP102 P0003 60057 T01560150 10178 20150 56027 =
2016-05-03 00:54 METAR KGED 030454Z AUTO 04005KT 7SM -RA SCT009 OVC100 15/15 A2986 RMK AO2 SLP109
                 P0016 T01500150 402560100 =
2016-05-03 00:50 METAR KGED 030450Z AUTO 05005KT 6SM -RA BR SCT009 BKN100 OVC110 15/15 A2986 RMK
                 AO2 P0015 =
2016-05-03 00:17 METAR KGED 030417Z AUTO 05004KT 4SM RA BR FEW019 BKN080 OVC100 16/15 A2989 RMK
                 AO2 LTG DSNT NW-NE P0009 T01610150 =
2016-05-03 00:06 METAR KGED 030406Z AUTO 00000KT 4SM VCTS RA BR FEW019 SCT026 OVC080 16/15 A2990
                 RMK AO2 LTG DSNT ALQDS P0004 T01560150 =
2016-05-02 23:54 METAR KGED 030354Z AUTO 00000KT 4SM VCTS RA BR SCT017 BKN024 OVC075 16/15 A2991
                 RMK AO2 LTG DSNT ALQDS RAE09B32 TSE04B08E25B26E49 SLP129 P0016 T01560150 =
2016-05-02 23:41 METAR KGED 030341Z AUTO 36003KT 4SM TSRA BR SCT010 BKN019 OVC025 16/14 A2993 RMK
                 AO2 LTG DSNT ALQDS RAE09B32 TSE04B08E25B26 P0011 T01560144 =
2016-05-02 23:32 METAR KGED 030332Z AUTO 00000KT 9SM -TSRA FEW006 BKN010 OVC023 16/15 A2993 RMK
                 AO2 LTG DSNT ALQDS RAE09B32 TSE04B08E25B26 CIG 009V014 P0008 T01560150 =
2016-05-02 23:25 METAR KGED 030325Z AUTO VRB06KT 10SM VCTS SCT008 BKN012 OVC025 16/15 A2993 RMK
                 AO2 LTG DSNT ALQDS RAE09 TSE04B08E25 P0008 T01610150 =
2016-05-02 23:21 METAR KGED 030321Z AUTO 33006KT 10SM TS BKN010 BKN017 OVC070 16/15 A2993 RMK AO2
                 LTG DSNT ALQDS RAE09 TSE04B08 P0008 T01560150 =
2016-05-02 23:09 METAR KGED 030309Z AUTO 36010G17KT 6SM TS BR SCT008 BKN018 OVC070 16/14 A2990
                 RMK AO2 LTG DSNT ALQDS RAE09 TSE04B08 PRESRR P0007 T01560144 =
2016-05-02 23:07 METAR KGED 030307Z AUTO 35009G17KT 3SM VCTS -RA BR SCT008 BKN036 OVC070 16/15
                 A2989 RMK AO2 LTG DSNT ALQDS TSE04 PRESRR P0007 T01560150 =
2016-05-02 23:03 METAR KGED 030303Z AUTO 35012G17KT 2SM TSRA BR SCT013 BKN039 OVC070 16/15 A2988
                 RMK AO2 LTG DSNT ALQDS P0007 T01560150 =
2016-05-02 22:54 METAR KGED 030254Z AUTO 16005KT 4SM -TSRA BR FEW019 BKN040 OVC050 16/15 A2987
                 RMK AO2 LTG DSNT ALQDS RAB33 TSB22 SLP115 P0022 60022 T01560150 56005 =
2016-05-02 22:51 METAR KGED 030251Z AUTO VRB04KT 3SM -TSRA BR FEW021 BKN040 OVC048 16/15 A2986
                 RMK AO2 LTG DSNT ALQDS RAB33 TSB22 P0021 =
2016-05-02 22:36 METAR KGED 030236Z AUTO 30003KT 1 3/4SM +TSRA BR FEW037 BKN048 BKN110 16/14
                 A2986 RMK AO2 LTG DSNT ALQDS RAB33 TSB22 P0012 T01560144 =
2016-05-02 22:22 METAR KGED 030222Z AUTO 05007KT 6SM TS BR FEW110 15/14 A2985 RMK AO2 LTG DSNT
                 ALQDS TSB22 PRESFR T01500144 =
2016-05-02 21:54 METAR KGED 030154Z AUTO 06005KT 8SM CLR 15/14 A2988 RMK AO2 LTG DSNT W AND NW
                 SLP116 T01500139 =
2016-05-02 20:54 METAR KGED 030054Z AUTO 12006KT 10SM CLR 16/14 A2985 RMK AO2 SLP108 T01560144 =
2016-05-02 19:54 METAR KGED 022354Z AUTO 11007KT 10SM CLR 18/16 A2989 RMK AO2 SLP120 T01830156
                 10256 20183 53001 =
2016-05-02 18:54 METAR KGED 022254Z AUTO 04006KT 10SM CLR 21/17 A2987 RMK AO2 SLP113 T02110167 =
2016-05-02 17:54 METAR KGED 022154Z AUTO 22004KT 10SM CLR 25/18 A2987 RMK AO2 SLP114 T02500183 =
2016-05-02 16:54 METAR KGED 022054Z AUTO 24006KT 10SM FEW026 25/18 A2988 RMK AO2 SLP118 T02500183
                 56009 =
2016-05-02 15:54 METAR KGED 021954Z AUTO VRB06KT 10SM FEW024 24/18 A2989 RMK AO2 SLP119 T02440183
                 =
2016-05-02 15:18 METAR KGED 021918Z AUTO 22012KT 10SM SCT023 25/18 A2989 RMK AO2 T02500183 =
2016-05-02 15:08 METAR KGED 021908Z AUTO 24008KT 10SM BKN022 24/18 A2990 RMK AO2 T02440183 =
2016-05-02 14:54 METAR KGED 021854Z AUTO 21012KT 10SM SCT022 24/18 A2990 RMK AO2 SLP124 T02440183
                 =
2016-05-02 13:54 METAR KGED 021754Z AUTO 24012KT 10SM OVC017 22/18 A2991 RMK AO2 SLP128 T02220178
                 10222 20106 55015 =
2016-05-02 13:50 METAR KGED 021750Z AUTO 23012KT 10SM OVC017 22/18 A2991 RMK AO2 =
2016-05-02 12:54 METAR KGED 021654Z AUTO 22008KT 9SM OVC010 19/17 A2993 RMK AO2 SLP134 T01940167
                 =
2016-05-02 11:54 METAR KGED 021554Z AUTO 00000KT 8SM OVC005 16/15 A2996 RMK AO2 SLP143 T01610150
                 =
2016-05-02 11:38 METAR KGED 021538Z AUTO 20004KT 8SM OVC005 16/14 A2997 RMK AO2 T01560144 =
2016-05-02 11:18 METAR KGED 021518Z AUTO 21005KT 8SM OVC004 14/14 A2996 RMK AO2 T01440139 =
2016-05-02 10:54 METAR KGED 021454Z AUTO 15008KT 6SM BR OVC003 14/13 A2996 RMK AO2 SLP144
                 T01390133 58011 =
2016-05-02 10:43 METAR KGED 021443Z AUTO 16009KT 5SM BR OVC003 13/13 A2996 RMK AO2 T01330133 =
2016-05-02 10:14 METAR KGED 021414Z AUTO 13005KT 2SM BR OVC003 12/12 A2998 RMK AO2 T01220122 =
2016-05-02 10:01 METAR KGED 021401Z AUTO 08003KT 1 3/4SM BR OVC003 12/12 A3000 RMK AO2 T01220122
                 =
2016-05-02 09:54 METAR KGED 021354Z AUTO 04004KT 2SM BR OVC003 12/12 A3000 RMK AO2 SLP159
                 T01220122 =
2016-05-02 09:38 METAR KGED 021338Z AUTO 06004KT 1 3/4SM BR OVC003 12/12 A3000 RMK AO2 T01170117
                 =
2016-05-02 08:54 METAR KGED 021254Z AUTO 10004KT 2 1/2SM BR OVC003 11/11 A3000 RMK AO2 SLP159
                 T01110111 =
2016-05-02 08:32 METAR KGED 021232Z AUTO 10006KT 2SM BR OVC003 11/11 A2998 RMK AO2 T01060106 =
2016-05-02 08:19 METAR KGED 021219Z AUTO 08004KT 1 1/2SM BR OVC003 11/11 A2999 RMK AO2 T01060106
                 =
2016-05-02 08:06 METAR KGED 021206Z AUTO 11008KT 1SM BR OVC002 11/11 A2998 RMK AO2 T01060106 =
2016-05-02 07:54 METAR KGED 021154Z AUTO 09005KT 3/4SM BR OVC002 11/11 A2999 RMK AO2 SLP156 60003
                 70041 T01060106 10111 20100 53005 =
2016-05-02 06:54 METAR KGED 021054Z AUTO 12006KT 3/4SM BR OVC002 10/10 A2999 RMK AO2 SLP155
                 T01000100 =
2016-05-02 06:38 METAR KGED 021038Z AUTO 10005KT 1SM BR OVC002 10/10 A2998 RMK AO2 T01000100 =
2016-05-02 06:31 METAR KGED 021031Z AUTO 09005KT 1 1/4SM BR OVC002 10/10 A2998 RMK AO2 T01000100
                 =
2016-05-02 05:54 METAR KGED 020954Z AUTO 09007KT 2 1/2SM BR OVC003 10/10 A2997 RMK AO2 SLP150
                 T01000100 =
2016-05-02 04:54 METAR KGED 020854Z AUTO 09006KT 3SM BR OVC003 10/10 A2998 RMK AO2 RAB02E24
                 SLP151 P0002 60003 T01000100 56018 =

Support USWX by starting your Amazon purchase here.